createdAt,value
2018-08-16T00:02:34.212Z,2.3
2018-08-16T00:05:34.122Z,3
2018-08-16T00:08:34.613Z,4.1
2018-08-16T00:11:34.191Z,2.7
2018-08-16T00:14:34.399Z,2.3
2018-08-16T00:17:34.241Z,2.3
2018-08-16T00:20:34.292Z,2.3
2018-08-16T00:23:34.427Z,2.3
2018-08-16T00:26:34.200Z,2.2
2018-08-16T00:29:34.349Z,2.3
2018-08-16T00:32:34.323Z,2
2018-08-16T00:35:34.078Z,2.1
2018-08-16T00:38:34.325Z,2.2
2018-08-16T00:41:34.258Z,2.1
2018-08-16T00:44:34.184Z,2.3
2018-08-16T00:47:34.191Z,2.6
2018-08-16T00:50:34.201Z,2.3
2018-08-16T00:53:34.356Z,2.3
2018-08-16T00:56:34.379Z,2.2
2018-08-16T00:59:34.191Z,2.3
2018-08-16T01:02:34.164Z,2.2
2018-08-16T01:05:34.132Z,2.1
2018-08-16T01:08:34.104Z,2.2
2018-08-16T01:11:34.048Z,2.2
2018-08-16T01:14:34.269Z,2.1
2018-08-16T01:17:34.294Z,2.2
2018-08-16T01:20:34.250Z,2.2
2018-08-16T01:23:34.104Z,2.2
2018-08-16T01:26:34.302Z,2.2
2018-08-16T01:29:34.179Z,2
2018-08-16T01:32:34.177Z,2.3
2018-08-16T01:35:35.312Z,2.3
2018-08-16T01:38:34.067Z,2.1
2018-08-16T01:41:34.238Z,2.1
2018-08-16T01:44:34.211Z,2.3
2018-08-16T01:47:34.339Z,2
2018-08-16T01:50:34.167Z,2.2
2018-08-16T01:53:34.309Z,2.3
2018-08-16T01:56:34.270Z,2.3
2018-08-16T01:59:34.199Z,2.3
2018-08-16T02:02:34.209Z,2.1
2018-08-16T02:05:34.235Z,2.2
2018-08-16T02:08:34.414Z,2.4
2018-08-16T02:11:34.520Z,2.2
2018-08-16T02:14:34.154Z,2.1
2018-08-16T02:17:34.220Z,2.3
2018-08-16T02:20:34.197Z,2.2
2018-08-16T02:23:34.169Z,2.2
2018-08-16T02:26:34.305Z,2.4
2018-08-16T02:29:34.315Z,2.2
2018-08-16T02:32:34.211Z,2.2
2018-08-16T02:35:34.423Z,2.3
2018-08-16T02:38:34.390Z,2.5
2018-08-16T02:41:34.460Z,2.3
2018-08-16T02:44:34.245Z,2
2018-08-16T02:47:34.122Z,2.3
2018-08-16T02:50:34.157Z,2.3
2018-08-16T02:53:34.130Z,2.2
2018-08-16T02:56:34.158Z,2.3
2018-08-16T02:59:34.380Z,2.3
2018-08-16T03:02:34.503Z,2.4
2018-08-16T03:05:34.271Z,2.2
2018-08-16T03:08:34.335Z,2.2
2018-08-16T03:11:34.135Z,2.1
2018-08-16T03:14:34.384Z,2.2
2018-08-16T03:17:34.118Z,2.3
2018-08-16T03:20:34.329Z,2.2
2018-08-16T03:23:34.587Z,2.3
2018-08-16T03:26:34.075Z,2.3
2018-08-16T03:29:34.138Z,2.1
2018-08-16T03:32:34.496Z,2
2018-08-16T03:35:34.195Z,2.3
2018-08-16T03:38:34.184Z,2.1
2018-08-16T03:41:34.106Z,2.3
2018-08-16T03:44:34.210Z,2.2
2018-08-16T03:47:34.166Z,2.2
2018-08-16T03:50:34.162Z,2.2
2018-08-16T03:53:34.200Z,2.2
2018-08-16T03:56:34.141Z,2.4
2018-08-16T03:59:34.352Z,2.1
2018-08-16T04:02:34.298Z,2.4
2018-08-16T04:05:34.433Z,2.4
2018-08-16T04:08:34.258Z,2.2
2018-08-16T04:11:34.268Z,2.2
2018-08-16T04:14:34.322Z,2.2
2018-08-16T04:17:34.300Z,2.3
2018-08-16T04:20:34.143Z,2.2
2018-08-16T04:23:34.872Z,2.3
2018-08-16T04:26:34.224Z,2.3
2018-08-16T04:29:34.226Z,2.3
2018-08-16T04:32:34.217Z,2.2
2018-08-16T04:35:35.548Z,2.3
2018-08-16T04:38:34.057Z,2.3
2018-08-16T04:41:35.177Z,2.4
2018-08-16T04:44:34.234Z,2.4
2018-08-16T04:47:34.259Z,2.2
2018-08-16T04:50:34.041Z,2.3
2018-08-16T04:53:34.071Z,2.5
2018-08-16T04:56:34.158Z,2.3
2018-08-16T04:59:34.159Z,2.2
2018-08-16T05:02:34.256Z,2.4
2018-08-16T05:05:34.261Z,2.5
2018-08-16T05:08:34.063Z,2.2
2018-08-16T05:11:34.479Z,2.2
2018-08-16T05:14:34.113Z,2.3
2018-08-16T05:17:34.138Z,2.5
2018-08-16T05:20:34.136Z,2.4
2018-08-16T05:23:34.287Z,2.4
2018-08-16T05:26:34.050Z,2.1
2018-08-16T05:29:34.229Z,2.4
2018-08-16T05:32:34.126Z,2.4
2018-08-16T05:35:34.019Z,2.4
2018-08-16T05:38:34.130Z,2.3
2018-08-16T05:41:34.219Z,2.4
2018-08-16T05:44:34.333Z,2.4
2018-08-16T05:47:34.164Z,2.3
2018-08-16T05:50:34.361Z,2.4
2018-08-16T05:53:34.122Z,2.3
2018-08-16T05:56:34.098Z,2.2
2018-08-16T05:59:34.440Z,2.3
2018-08-16T06:02:34.125Z,2.4
2018-08-16T06:05:34.150Z,2.1
2018-08-16T06:08:34.148Z,2.4
2018-08-16T06:11:34.147Z,5.8
2018-08-16T06:14:34.000Z,6.8
2018-08-16T06:17:34.262Z,6
2018-08-16T06:20:33.996Z,9.4
2018-08-16T06:23:34.269Z,9.7
2018-08-16T06:26:34.083Z,7.2
2018-08-16T06:29:33.977Z,8.4
2018-08-16T06:32:34.466Z,7.4
2018-08-16T06:35:34.415Z,9.4
2018-08-16T06:38:33.983Z,7.3
2018-08-16T06:41:34.311Z,8.1
2018-08-16T06:44:34.209Z,9.1
2018-08-16T06:47:34.417Z,7.9
2018-08-16T06:50:34.067Z,10
2018-08-16T06:53:34.292Z,10.8
2018-08-16T06:56:34.044Z,10.6
2018-08-16T06:59:34.345Z,7.4
2018-08-16T07:02:34.091Z,9.4
2018-08-16T07:05:34.104Z,7.1
2018-08-16T07:08:34.267Z,6.7
2018-08-16T07:11:34.331Z,9.1
2018-08-16T07:14:34.034Z,13
2018-08-16T07:17:34.255Z,10.6
2018-08-16T07:20:34.265Z,6.5
2018-08-16T07:23:34.149Z,6.9
2018-08-16T07:26:34.140Z,8.2
2018-08-16T07:29:34.020Z,6.7
2018-08-16T07:32:34.033Z,7.6
2018-08-16T07:35:34.238Z,5.9
2018-08-16T07:38:34.224Z,9.1
2018-08-16T07:41:34.066Z,6.8
2018-08-16T07:44:34.122Z,9.6
2018-08-16T07:47:34.241Z,8.9
2018-08-16T07:50:34.462Z,5.1
2018-08-16T07:53:34.119Z,9.6
2018-08-16T07:56:34.012Z,15.4
2018-08-16T07:59:34.092Z,10.1
2018-08-16T08:02:34.202Z,9.9
2018-08-16T08:05:34.131Z,11.6
2018-08-16T08:08:34.108Z,10.4
2018-08-16T08:11:34.061Z,6.7
2018-08-16T08:14:34.331Z,6.8
2018-08-16T08:17:34.133Z,8.6
2018-08-16T08:20:34.140Z,8.4
2018-08-16T08:23:34.175Z,6.2
2018-08-16T08:26:34.040Z,6.1
2018-08-16T08:29:34.089Z,6.8
2018-08-16T08:32:34.155Z,4.9
2018-08-16T08:35:34.029Z,7.5
2018-08-16T08:38:34.836Z,7
2018-08-16T08:41:34.180Z,6.5
2018-08-16T08:44:34.056Z,5.4
2018-08-16T08:47:34.150Z,5.3
2018-08-16T08:50:34.174Z,7.4
2018-08-16T08:53:34.140Z,4.6
2018-08-16T08:56:34.157Z,4.9
2018-08-16T08:59:34.236Z,6.6
2018-08-16T09:02:34.070Z,5.9
2018-08-16T09:05:34.096Z,4.9
2018-08-16T09:08:34.036Z,4.6
2018-08-16T09:11:33.969Z,4.7
2018-08-16T09:14:34.266Z,5.8
2018-08-16T09:17:34.222Z,5.2
2018-08-16T09:20:33.935Z,7
2018-08-16T09:23:34.038Z,4.4
2018-08-16T09:26:34.241Z,4.3
2018-08-16T09:29:34.126Z,4.2
2018-08-16T09:32:34.205Z,5.5
2018-08-16T09:35:34.193Z,4.7
2018-08-16T09:38:33.985Z,5.5
2018-08-16T09:41:34.217Z,4.9
2018-08-16T09:44:34.321Z,4.6
2018-08-16T09:47:34.070Z,4.5
2018-08-16T09:50:33.949Z,4
2018-08-16T09:53:34.104Z,4.5
2018-08-16T09:56:34.162Z,4.5
2018-08-16T09:59:34.308Z,10.2
2018-08-16T10:02:34.289Z,9.3
2018-08-16T10:05:34.062Z,9.5
2018-08-16T10:08:34.156Z,8.4
2018-08-16T10:11:34.152Z,10.6
2018-08-16T10:14:34.046Z,5.4
2018-08-16T10:17:34.215Z,8.5
2018-08-16T10:20:34.304Z,13.6
2018-08-16T10:23:34.019Z,10.3
2018-08-16T10:26:34.235Z,11.8
2018-08-16T10:29:34.308Z,11.9
2018-08-16T10:32:33.879Z,12.7
2018-08-16T10:35:34.182Z,12.6
2018-08-16T10:38:34.209Z,10.9
2018-08-16T10:41:34.100Z,12.8
2018-08-16T10:44:34.942Z,11.6
2018-08-16T10:47:34.286Z,14.3
2018-08-16T10:50:34.019Z,8.9
2018-08-16T10:53:33.980Z,9.4
2018-08-16T10:56:34.221Z,8.7
2018-08-16T10:59:35.348Z,11.5
2018-08-16T11:02:34.135Z,9.7
2018-08-16T11:05:34.183Z,10.3
2018-08-16T11:08:33.977Z,9.2
2018-08-16T11:11:34.128Z,9.9
2018-08-16T11:14:34.315Z,11.2
2018-08-16T11:17:34.050Z,7.7
2018-08-16T11:20:34.180Z,9.7
2018-08-16T11:23:34.435Z,9.5
2018-08-16T11:26:34.104Z,9
2018-08-16T11:29:34.115Z,6.1
2018-08-16T11:32:34.025Z,10.5
2018-08-16T11:35:33.962Z,8.2
2018-08-16T11:38:34.019Z,7.2
2018-08-16T11:41:34.113Z,9.3
2018-08-16T11:44:33.879Z,7.1
2018-08-16T11:47:34.261Z,6.3
2018-08-16T11:50:34.285Z,9
2018-08-16T11:53:34.038Z,6
2018-08-16T11:56:34.304Z,13.6
2018-08-16T11:59:34.235Z,6.9
2018-08-16T12:02:34.030Z,6.9
2018-08-16T12:05:34.145Z,14.4
2018-08-16T12:08:34.109Z,10
2018-08-16T12:11:34.063Z,11.8
2018-08-16T12:14:34.911Z,7.9
2018-08-16T12:17:34.185Z,11.2
2018-08-16T12:20:34.023Z,7
2018-08-16T12:23:33.918Z,10.7
2018-08-16T12:26:34.142Z,7.2
2018-08-16T12:29:34.338Z,12.5
2018-08-16T12:32:34.237Z,7.9
2018-08-16T12:35:34.167Z,5.6
2018-08-16T12:38:34.069Z,10.8
2018-08-16T12:41:34.332Z,12
2018-08-16T12:44:34.171Z,9.3
2018-08-16T12:47:34.742Z,10.7
2018-08-16T12:50:34.009Z,12.8
2018-08-16T12:53:34.616Z,9.1
2018-08-16T12:56:34.133Z,8.8
2018-08-16T12:59:34.072Z,9.5
2018-08-16T13:02:34.156Z,13.5
2018-08-16T13:05:34.138Z,9
2018-08-16T13:08:34.067Z,8.7
2018-08-16T13:11:34.042Z,15.6
2018-08-16T13:14:34.163Z,12.6
2018-08-16T13:17:34.059Z,11.3
2018-08-16T13:20:34.460Z,15.1
2018-08-16T13:23:34.694Z,12.6
2018-08-16T13:26:33.931Z,18.8
2018-08-16T13:29:34.187Z,13.9
2018-08-16T13:32:34.160Z,11.3
2018-08-16T13:35:34.085Z,22.2
2018-08-16T13:38:33.917Z,15.9
2018-08-16T13:41:34.006Z,13.6
2018-08-16T13:44:34.157Z,12.1
2018-08-16T13:47:33.992Z,15.5
2018-08-16T13:50:34.109Z,12.2
2018-08-16T13:53:34.342Z,11.9
2018-08-16T13:56:33.977Z,11
2018-08-16T13:59:34.059Z,10.3
2018-08-16T14:02:34.061Z,8.9
2018-08-16T14:05:33.903Z,7.6
2018-08-16T14:08:34.010Z,11.6
2018-08-16T14:11:34.145Z,8.4
2018-08-16T14:14:33.963Z,8
2018-08-16T14:17:33.972Z,10.2
2018-08-16T14:20:34.125Z,11.2
2018-08-16T14:23:33.912Z,9.7
2018-08-16T14:26:34.049Z,7.9
2018-08-16T14:29:34.141Z,7.4
2018-08-16T14:32:35.456Z,5.6
2018-08-16T14:35:34.051Z,7.2
2018-08-16T14:38:34.558Z,7.3
2018-08-16T14:41:33.914Z,7.5
2018-08-16T14:44:34.161Z,8.8
2018-08-16T14:47:34.183Z,9.8
2018-08-16T14:50:33.894Z,9.8
2018-08-16T14:53:34.239Z,7.5
2018-08-16T14:56:35.359Z,6.9
2018-08-16T14:59:34.176Z,5.7
2018-08-16T15:02:34.271Z,4
2018-08-16T15:05:34.123Z,6
2018-08-16T15:08:34.113Z,9.5
2018-08-16T15:11:34.155Z,7.3
2018-08-16T15:14:34.000Z,9.1
2018-08-16T15:17:34.019Z,6.7
2018-08-16T15:20:34.082Z,6.4
2018-08-16T15:23:34.060Z,11.1
2018-08-16T15:26:34.187Z,9.3
2018-08-16T15:29:34.208Z,9.6
2018-08-16T15:32:34.064Z,11.6
2018-08-16T15:35:34.166Z,7.4
2018-08-16T15:38:34.141Z,7.5
2018-08-16T15:41:34.196Z,8.9
2018-08-16T15:44:34.059Z,8
2018-08-16T15:47:33.892Z,7.4
2018-08-16T15:50:34.146Z,6.4
2018-08-16T15:53:33.976Z,6
2018-08-16T15:56:34.391Z,7.1
2018-08-16T15:59:34.354Z,7.2
2018-08-16T16:02:33.969Z,7.1
2018-08-16T16:05:34.992Z,5.8
2018-08-16T16:08:34.013Z,5.2
2018-08-16T16:11:34.087Z,5.3
2018-08-16T16:14:34.606Z,7.2
2018-08-16T16:17:34.472Z,5.3
2018-08-16T16:20:34.625Z,7.2
2018-08-16T16:23:33.884Z,6
2018-08-16T16:26:34.082Z,7.6
2018-08-16T16:29:33.976Z,5.6
2018-08-16T16:32:34.191Z,6
2018-08-16T16:35:34.098Z,4.9
2018-08-16T16:38:34.754Z,8
2018-08-16T16:41:34.082Z,7.1
2018-08-16T16:44:34.057Z,5.9
2018-08-16T16:47:34.019Z,5.3
2018-08-16T16:50:34.044Z,6.7
2018-08-16T16:53:34.081Z,5.8
2018-08-16T16:56:34.062Z,5.6
2018-08-16T16:59:34.098Z,6.4
2018-08-16T17:02:34.045Z,7
2018-08-16T17:05:34.196Z,6.2
2018-08-16T17:08:33.964Z,6.2
2018-08-16T17:11:33.988Z,6.8
2018-08-16T17:14:34.160Z,4.6
2018-08-16T17:17:34.150Z,7.3
2018-08-16T17:20:33.963Z,6.4
2018-08-16T17:23:34.017Z,5.2
2018-08-16T17:26:34.319Z,5.2
2018-08-16T17:29:34.075Z,5.2
2018-08-16T17:32:34.113Z,8.7
2018-08-16T17:35:34.099Z,4.9
2018-08-16T17:38:34.063Z,4.8
2018-08-16T17:41:34.139Z,5.9
2018-08-16T17:44:33.929Z,4.9
2018-08-16T17:47:34.095Z,5.3
2018-08-16T17:50:34.126Z,4.1
2018-08-16T17:53:34.024Z,5.9
2018-08-16T17:56:33.954Z,5.9
2018-08-16T17:59:33.927Z,4.8
2018-08-16T18:02:33.927Z,4.6
2018-08-16T18:05:33.969Z,3.9
2018-08-16T18:08:33.966Z,4
2018-08-16T18:11:33.954Z,4
2018-08-16T18:14:34.036Z,5
2018-08-16T18:17:33.859Z,4.9
2018-08-16T18:20:34.129Z,3.6
2018-08-16T18:23:34.062Z,3.9
2018-08-16T18:26:34.067Z,3.7
2018-08-16T18:29:34.151Z,4.1
2018-08-16T18:32:34.108Z,4.1
2018-08-16T18:35:34.031Z,4.2
2018-08-16T18:38:34.228Z,4.9
2018-08-16T18:41:33.882Z,2.7
2018-08-16T18:44:33.884Z,3.5
2018-08-16T18:47:33.939Z,3.9
2018-08-16T18:50:34.089Z,3.8
2018-08-16T18:53:35.321Z,3.6
2018-08-16T18:56:34.043Z,3.7
2018-08-16T18:59:34.807Z,3.3
2018-08-16T19:02:34.062Z,3.5
2018-08-16T19:05:36.350Z,4.5
2018-08-16T19:08:34.012Z,3.6
2018-08-16T19:11:34.005Z,4.3
2018-08-16T19:14:34.084Z,3.5
2018-08-16T19:17:33.807Z,2.9
2018-08-16T19:20:33.853Z,4
2018-08-16T19:23:34.021Z,3.8
2018-08-16T19:26:33.811Z,2.8
2018-08-16T19:29:34.738Z,5.6
2018-08-16T19:32:33.969Z,8.6
2018-08-16T19:35:34.132Z,6.4
2018-08-16T19:38:34.051Z,4.3
2018-08-16T19:41:33.962Z,3.3
2018-08-16T19:44:34.040Z,4.8
2018-08-16T19:47:34.046Z,4
2018-08-16T19:50:33.818Z,5.2
2018-08-16T19:53:34.062Z,4.5
2018-08-16T19:56:33.934Z,3.4
2018-08-16T19:59:34.348Z,3.3
2018-08-16T20:02:33.975Z,3.7
2018-08-16T20:05:33.897Z,3.5
2018-08-16T20:08:34.054Z,4.6
2018-08-16T20:11:34.231Z,3.5
2018-08-16T20:14:34.226Z,5.1
2018-08-16T20:17:34.016Z,3.3
2018-08-16T20:20:33.939Z,2.6
2018-08-16T20:23:34.124Z,3.2
2018-08-16T20:26:34.029Z,3.2
2018-08-16T20:29:34.097Z,4.3
2018-08-16T20:32:34.076Z,4.5
2018-08-16T20:35:33.946Z,2.8
2018-08-16T20:38:33.941Z,3.2
2018-08-16T20:41:33.982Z,3.2
2018-08-16T20:44:33.946Z,2.7
2018-08-16T20:47:33.997Z,3.2
2018-08-16T20:50:34.023Z,2.5
2018-08-16T20:53:34.039Z,4.4
2018-08-16T20:56:34.138Z,2.9
2018-08-16T20:59:34.131Z,3.2
2018-08-16T21:02:34.179Z,3.3
2018-08-16T21:05:33.941Z,3.2
2018-08-16T21:08:34.075Z,3.4
2018-08-16T21:11:33.923Z,3.4
2018-08-16T21:14:34.000Z,2.5
2018-08-16T21:17:33.879Z,3
2018-08-16T21:20:34.044Z,2.5
2018-08-16T21:23:33.825Z,3.7
2018-08-16T21:26:33.863Z,2.8
2018-08-16T21:29:33.931Z,3
2018-08-16T21:32:34.000Z,2.4
2018-08-16T21:35:33.941Z,3.5
2018-08-16T21:38:34.177Z,2.8
2018-08-16T21:41:34.018Z,2.5
2018-08-16T21:44:33.815Z,3.1
2018-08-16T21:47:33.817Z,3.6
2018-08-16T21:50:33.978Z,2.5
2018-08-16T21:53:34.031Z,2.6
2018-08-16T21:56:33.984Z,2.5
2018-08-16T21:59:33.942Z,2.6
2018-08-16T22:02:33.920Z,2.5
2018-08-16T22:05:33.988Z,2.6
2018-08-16T22:08:33.960Z,3
2018-08-16T22:11:34.035Z,2.4
2018-08-16T22:14:33.966Z,2.5
2018-08-16T22:17:33.979Z,2.3
2018-08-16T22:20:33.863Z,2.4
2018-08-16T22:23:34.023Z,2.7
2018-08-16T22:26:33.789Z,3.1
2018-08-16T22:29:33.942Z,2.8
2018-08-16T22:32:33.998Z,2.5
2018-08-16T22:35:33.990Z,3.3
2018-08-16T22:38:33.941Z,2.2
2018-08-16T22:41:33.905Z,2.6
2018-08-16T22:44:34.654Z,2.4
2018-08-16T22:47:33.983Z,2.6
2018-08-16T22:50:33.812Z,3.1
2018-08-16T22:53:33.924Z,2.4
2018-08-16T22:56:33.781Z,2.3
2018-08-16T22:59:33.898Z,2.4
2018-08-16T23:02:34.004Z,2.2
2018-08-16T23:05:33.854Z,2.5
2018-08-16T23:08:33.747Z,2.4
2018-08-16T23:11:33.976Z,2.2
2018-08-16T23:14:34.063Z,2.5
2018-08-16T23:17:33.773Z,2.3
2018-08-16T23:20:33.945Z,3.5
2018-08-16T23:23:34.118Z,2.5
2018-08-16T23:26:33.908Z,2.4
2018-08-16T23:29:33.866Z,2.9
2018-08-16T23:32:33.842Z,2.3
2018-08-16T23:35:33.828Z,2.4
2018-08-16T23:38:33.844Z,2.3
2018-08-16T23:41:33.979Z,2.3
2018-08-16T23:44:33.842Z,2.3
2018-08-16T23:47:33.923Z,2.2
2018-08-16T23:50:34.362Z,2.3
2018-08-16T23:53:33.898Z,2.3
2018-08-16T23:56:33.997Z,2.3
2018-08-16T23:59:33.998Z,2.4
